sensor_id;sensor_type;location;lat;lon;timestamp;temperature;humidity
31799;DHT22;18374;51.136;3.502;2023-05-07T00:01:05;15.10;99.90
31799;DHT22;18374;51.136;3.502;2023-05-07T00:03:33;15.10;99.90
31799;DHT22;18374;51.136;3.502;2023-05-07T00:06:01;15.10;99.90
31799;DHT22;18374;51.136;3.502;2023-05-07T00:08:29;15.10;99.90
31799;DHT22;18374;51.136;3.502;2023-05-07T00:10:57;15.10;99.90
31799;DHT22;18374;51.136;3.502;2023-05-07T00:13:25;15.10;99.90
31799;DHT22;18374;51.136;3.502;2023-05-07T00:15:52;15.10;99.90
31799;DHT22;18374;51.136;3.502;2023-05-07T00:18:20;15.10;99.90
31799;DHT22;18374;51.136;3.502;2023-05-07T00:20:49;15.10;99.90
31799;DHT22;18374;51.136;3.502;2023-05-07T00:23:17;15.20;99.90
31799;DHT22;18374;51.136;3.502;2023-05-07T00:25:45;15.20;99.90
31799;DHT22;18374;51.136;3.502;2023-05-07T00:28:13;15.20;99.90
31799;DHT22;18374;51.136;3.502;2023-05-07T00:30:40;15.20;99.90
31799;DHT22;18374;51.136;3.502;2023-05-07T00:33:08;15.20;99.90
31799;DHT22;18374;51.136;3.502;2023-05-07T00:35:36;15.20;99.90
31799;DHT22;18374;51.136;3.502;2023-05-07T00:38:04;15.20;99.90
31799;DHT22;18374;51.136;3.502;2023-05-07T00:40:32;15.30;99.90
31799;DHT22;18374;51.136;3.502;2023-05-07T00:43:00;15.30;99.90
31799;DHT22;18374;51.136;3.502;2023-05-07T00:45:28;15.20;99.90
31799;DHT22;18374;51.136;3.502;2023-05-07T00:47:58;15.20;99.90
31799;DHT22;18374;51.136;3.502;2023-05-07T00:50:28;15.20;99.90
31799;DHT22;18374;51.136;3.502;2023-05-07T00:52:57;15.10;99.90
31799;DHT22;18374;51.136;3.502;2023-05-07T00:55:25;15.10;99.90
31799;DHT22;18374;51.136;3.502;2023-05-07T00:57:54;15.10;99.90
31799;DHT22;18374;51.136;3.502;2023-05-07T01:00:21;15.10;99.90
31799;DHT22;18374;51.136;3.502;2023-05-07T01:02:50;15.10;99.90
31799;DHT22;18374;51.136;3.502;2023-05-07T01:05:19;15.00;99.90
31799;DHT22;18374;51.136;3.502;2023-05-07T01:07:49;15.00;99.90
31799;DHT22;18374;51.136;3.502;2023-05-07T01:10:17;15.00;99.90
31799;DHT22;18374;51.136;3.502;2023-05-07T01:12:46;15.00;99.90
31799;DHT22;18374;51.136;3.502;2023-05-07T01:15:15;14.90;99.90
31799;DHT22;18374;51.136;3.502;2023-05-07T01:17:43;14.90;99.90
31799;DHT22;18374;51.136;3.502;2023-05-07T01:20:19;14.90;99.90
31799;DHT22;18374;51.136;3.502;2023-05-07T01:22:49;14.90;99.90
31799;DHT22;18374;51.136;3.502;2023-05-07T01:25:18;14.80;99.90
31799;DHT22;18374;51.136;3.502;2023-05-07T01:27:49;14.80;99.90
31799;DHT22;18374;51.136;3.502;2023-05-07T01:30:20;14.80;99.90
31799;DHT22;18374;51.136;3.502;2023-05-07T01:32:58;14.80;99.90
31799;DHT22;18374;51.136;3.502;2023-05-07T01:35:42;14.70;99.90
31799;DHT22;18374;51.136;3.502;2023-05-07T01:38:13;14.70;99.90
31799;DHT22;18374;51.136;3.502;2023-05-07T01:40:41;14.60;99.90
31799;DHT22;18374;51.136;3.502;2023-05-07T01:43:09;14.60;99.90
31799;DHT22;18374;51.136;3.502;2023-05-07T01:45:38;14.60;99.90
31799;DHT22;18374;51.136;3.502;2023-05-07T01:48:07;14.70;99.90
31799;DHT22;18374;51.136;3.502;2023-05-07T01:50:35;14.70;99.90
31799;DHT22;18374;51.136;3.502;2023-05-07T01:53:04;14.70;99.90
31799;DHT22;18374;51.136;3.502;2023-05-07T01:55:32;14.60;99.90
31799;DHT22;18374;51.136;3.502;2023-05-07T01:57:59;14.60;99.90
31799;DHT22;18374;51.136;3.502;2023-05-07T02:00:27;14.60;99.90
31799;DHT22;18374;51.136;3.502;2023-05-07T02:02:56;14.50;99.90
31799;DHT22;18374;51.136;3.502;2023-05-07T02:05:33;14.50;99.90
31799;DHT22;18374;51.136;3.502;2023-05-07T02:08:07;14.40;99.90
31799;DHT22;18374;51.136;3.502;2023-05-07T02:10:35;14.40;99.90
31799;DHT22;18374;51.136;3.502;2023-05-07T02:13:05;14.40;99.90
31799;DHT22;18374;51.136;3.502;2023-05-07T02:15:33;14.30;99.90
31799;DHT22;18374;51.136;3.502;2023-05-07T02:18:07;14.30;99.90
31799;DHT22;18374;51.136;3.502;2023-05-07T02:20:35;14.20;99.90
31799;DHT22;18374;51.136;3.502;2023-05-07T02:23:03;14.20;99.90
31799;DHT22;18374;51.136;3.502;2023-05-07T02:25:31;14.10;99.90
31799;DHT22;18374;51.136;3.502;2023-05-07T02:27:59;14.00;99.90
31799;DHT22;18374;51.136;3.502;2023-05-07T02:30:40;13.90;99.90
31799;DHT22;18374;51.136;3.502;2023-05-07T02:33:08;13.80;99.90
31799;DHT22;18374;51.136;3.502;2023-05-07T02:35:36;13.70;99.90
31799;DHT22;18374;51.136;3.502;2023-05-07T02:38:04;13.70;99.90
31799;DHT22;18374;51.136;3.502;2023-05-07T02:40:33;13.70;99.90
31799;DHT22;18374;51.136;3.502;2023-05-07T02:43:06;13.70;99.90
31799;DHT22;18374;51.136;3.502;2023-05-07T02:45:33;13.70;99.90
31799;DHT22;18374;51.136;3.502;2023-05-07T02:48:03;13.70;99.90
31799;DHT22;18374;51.136;3.502;2023-05-07T02:50:33;13.70;99.90
31799;DHT22;18374;51.136;3.502;2023-05-07T02:53:01;13.70;99.90
31799;DHT22;18374;51.136;3.502;2023-05-07T02:55:29;13.70;99.90
31799;DHT22;18374;51.136;3.502;2023-05-07T02:57:57;13.70;99.90
31799;DHT22;18374;51.136;3.502;2023-05-07T03:00:26;13.80;99.90
31799;DHT22;18374;51.136;3.502;2023-05-07T03:03:12;13.80;99.90
31799;DHT22;18374;51.136;3.502;2023-05-07T03:05:40;13.80;99.90
31799;DHT22;18374;51.136;3.502;2023-05-07T03:08:09;13.80;99.90
31799;DHT22;18374;51.136;3.502;2023-05-07T03:10:37;13.70;99.90
31799;DHT22;18374;51.136;3.502;2023-05-07T03:13:05;13.70;99.90
31799;DHT22;18374;51.136;3.502;2023-05-07T03:15:33;13.70;99.90
31799;DHT22;18374;51.136;3.502;2023-05-07T03:18:01;13.70;99.90
31799;DHT22;18374;51.136;3.502;2023-05-07T03:20:29;13.70;99.90
31799;DHT22;18374;51.136;3.502;2023-05-07T03:22:58;13.70;99.90
31799;DHT22;18374;51.136;3.502;2023-05-07T03:25:25;13.70;99.90
31799;DHT22;18374;51.136;3.502;2023-05-07T03:27:53;13.70;99.90
31799;DHT22;18374;51.136;3.502;2023-05-07T03:30:24;13.80;99.90
31799;DHT22;18374;51.136;3.502;2023-05-07T03:32:52;13.80;99.90
31799;DHT22;18374;51.136;3.502;2023-05-07T03:35:20;13.80;99.90
31799;DHT22;18374;51.136;3.502;2023-05-07T03:37:48;13.70;99.90
31799;DHT22;18374;51.136;3.502;2023-05-07T03:40:16;13.70;99.90
31799;DHT22;18374;51.136;3.502;2023-05-07T03:42:48;13.60;99.90
31799;DHT22;18374;51.136;3.502;2023-05-07T03:45:18;13.60;99.90
31799;DHT22;18374;51.136;3.502;2023-05-07T03:47:55;13.60;99.90
31799;DHT22;18374;51.136;3.502;2023-05-07T03:50:23;13.60;99.90
31799;DHT22;18374;51.136;3.502;2023-05-07T03:52:51;13.60;99.90
31799;DHT22;18374;51.136;3.502;2023-05-07T03:55:21;13.60;99.90
31799;DHT22;18374;51.136;3.502;2023-05-07T03:57:54;13.60;99.90
31799;DHT22;18374;51.136;3.502;2023-05-07T04:00:22;13.60;99.90
31799;DHT22;18374;51.136;3.502;2023-05-07T04:02:50;13.60;99.90
31799;DHT22;18374;51.136;3.502;2023-05-07T04:05:25;13.60;99.90
31799;DHT22;18374;51.136;3.502;2023-05-07T04:07:58;13.60;99.90
31799;DHT22;18374;51.136;3.502;2023-05-07T04:10:34;13.70;99.90
31799;DHT22;18374;51.136;3.502;2023-05-07T04:13:06;13.80;99.90
31799;DHT22;18374;51.136;3.502;2023-05-07T04:15:35;13.80;99.90
31799;DHT22;18374;51.136;3.502;2023-05-07T04:18:06;13.80;99.90
31799;DHT22;18374;51.136;3.502;2023-05-07T04:20:35;13.70;99.90
31799;DHT22;18374;51.136;3.502;2023-05-07T04:23:07;13.70;99.90
31799;DHT22;18374;51.136;3.502;2023-05-07T04:25:35;13.70;99.90
31799;DHT22;18374;51.136;3.502;2023-05-07T04:28:11;13.70;99.90
31799;DHT22;18374;51.136;3.502;2023-05-07T04:30:40;13.70;99.90
31799;DHT22;18374;51.136;3.502;2023-05-07T04:33:10;13.70;99.90
31799;DHT22;18374;51.136;3.502;2023-05-07T04:35:42;13.70;99.90
31799;DHT22;18374;51.136;3.502;2023-05-07T04:38:14;13.70;99.90
31799;DHT22;18374;51.136;3.502;2023-05-07T04:40:42;13.80;99.90
31799;DHT22;18374;51.136;3.502;2023-05-07T04:43:14;13.80;99.90
31799;DHT22;18374;51.136;3.502;2023-05-07T04:45:46;13.80;99.90
31799;DHT22;18374;51.136;3.502;2023-05-07T04:48:14;13.90;99.90
31799;DHT22;18374;51.136;3.502;2023-05-07T04:50:42;13.90;99.90
31799;DHT22;18374;51.136;3.502;2023-05-07T04:53:13;13.90;99.90
31799;DHT22;18374;51.136;3.502;2023-05-07T04:55:41;13.90;99.90
31799;DHT22;18374;51.136;3.502;2023-05-07T04:58:09;14.00;99.90
31799;DHT22;18374;51.136;3.502;2023-05-07T05:00:38;13.90;99.90
31799;DHT22;18374;51.136;3.502;2023-05-07T05:03:07;13.90;99.90
31799;DHT22;18374;51.136;3.502;2023-05-07T05:05:37;13.90;99.90
31799;DHT22;18374;51.136;3.502;2023-05-07T05:08:06;13.90;99.90
31799;DHT22;18374;51.136;3.502;2023-05-07T05:10:37;13.90;99.90
31799;DHT22;18374;51.136;3.502;2023-05-07T05:13:06;13.90;99.90
31799;DHT22;18374;51.136;3.502;2023-05-07T05:15:35;14.00;99.90
31799;DHT22;18374;51.136;3.502;2023-05-07T05:18:03;14.10;99.90
31799;DHT22;18374;51.136;3.502;2023-05-07T05:20:31;14.20;99.90
31799;DHT22;18374;51.136;3.502;2023-05-07T05:22:59;14.20;99.90
31799;DHT22;18374;51.136;3.502;2023-05-07T05:25:27;14.30;99.90
31799;DHT22;18374;51.136;3.502;2023-05-07T05:27:57;14.40;99.90
31799;DHT22;18374;51.136;3.502;2023-05-07T05:30:25;14.40;99.90
31799;DHT22;18374;51.136;3.502;2023-05-07T05:32:53;14.50;99.90
31799;DHT22;18374;51.136;3.502;2023-05-07T05:35:21;14.50;99.90
31799;DHT22;18374;51.136;3.502;2023-05-07T05:37:49;14.50;99.90
31799;DHT22;18374;51.136;3.502;2023-05-07T05:40:18;14.50;99.90
31799;DHT22;18374;51.136;3.502;2023-05-07T05:42:47;14.50;99.90
31799;DHT22;18374;51.136;3.502;2023-05-07T05:45:16;14.60;99.90
31799;DHT22;18374;51.136;3.502;2023-05-07T05:47:45;14.60;99.90
31799;DHT22;18374;51.136;3.502;2023-05-07T05:50:14;14.60;99.90
31799;DHT22;18374;51.136;3.502;2023-05-07T05:52:42;14.70;99.90
31799;DHT22;18374;51.136;3.502;2023-05-07T05:55:10;14.70;99.90
31799;DHT22;18374;51.136;3.502;2023-05-07T05:57:38;14.80;99.90
31799;DHT22;18374;51.136;3.502;2023-05-07T06:00:07;14.80;99.90
31799;DHT22;18374;51.136;3.502;2023-05-07T06:02:44;14.80;99.90
31799;DHT22;18374;51.136;3.502;2023-05-07T06:05:18;14.90;99.90
31799;DHT22;18374;51.136;3.502;2023-05-07T06:07:49;14.90;99.90
31799;DHT22;18374;51.136;3.502;2023-05-07T06:10:18;15.00;99.90
31799;DHT22;18374;51.136;3.502;2023-05-07T06:12:46;15.10;99.90
31799;DHT22;18374;51.136;3.502;2023-05-07T06:15:14;15.10;99.90
31799;DHT22;18374;51.136;3.502;2023-05-07T06:17:42;15.10;99.90
31799;DHT22;18374;51.136;3.502;2023-05-07T06:20:11;15.20;99.90
31799;DHT22;18374;51.136;3.502;2023-05-07T06:22:40;15.20;99.90
31799;DHT22;18374;51.136;3.502;2023-05-07T06:25:10;15.20;99.90
31799;DHT22;18374;51.136;3.502;2023-05-07T06:27:39;15.20;99.90
31799;DHT22;18374;51.136;3.502;2023-05-07T06:30:07;15.30;99.90
31799;DHT22;18374;51.136;3.502;2023-05-07T06:32:36;15.30;99.90
31799;DHT22;18374;51.136;3.502;2023-05-07T06:35:05;15.30;99.90
31799;DHT22;18374;51.136;3.502;2023-05-07T06:37:36;15.30;99.90
31799;DHT22;18374;51.136;3.502;2023-05-07T06:40:08;15.30;99.90
31799;DHT22;18374;51.136;3.502;2023-05-07T06:42:39;15.30;99.90
31799;DHT22;18374;51.136;3.502;2023-05-07T06:45:23;15.30;99.90
31799;DHT22;18374;51.136;3.502;2023-05-07T06:47:54;15.30;99.90
31799;DHT22;18374;51.136;3.502;2023-05-07T06:50:23;15.30;99.90
31799;DHT22;18374;51.136;3.502;2023-05-07T06:52:55;15.30;99.90
31799;DHT22;18374;51.136;3.502;2023-05-07T06:55:23;15.30;99.90
31799;DHT22;18374;51.136;3.502;2023-05-07T06:57:50;15.40;99.90
31799;DHT22;18374;51.136;3.502;2023-05-07T07:00:21;15.40;99.90
31799;DHT22;18374;51.136;3.502;2023-05-07T07:02:54;15.40;99.90
31799;DHT22;18374;51.136;3.502;2023-05-07T07:05:25;15.40;99.90
31799;DHT22;18374;51.136;3.502;2023-05-07T07:07:53;15.50;99.90
31799;DHT22;18374;51.136;3.502;2023-05-07T07:10:22;15.50;99.90
31799;DHT22;18374;51.136;3.502;2023-05-07T07:12:51;15.60;99.90
31799;DHT22;18374;51.136;3.502;2023-05-07T07:15:21;15.60;99.90
31799;DHT22;18374;51.136;3.502;2023-05-07T07:17:50;15.70;99.90
31799;DHT22;18374;51.136;3.502;2023-05-07T07:20:18;15.80;99.90
31799;DHT22;18374;51.136;3.502;2023-05-07T07:22:47;15.80;99.90
31799;DHT22;18374;51.136;3.502;2023-05-07T07:25:16;15.90;99.90
31799;DHT22;18374;51.136;3.502;2023-05-07T07:27:44;15.90;99.90
31799;DHT22;18374;51.136;3.502;2023-05-07T07:30:14;15.90;99.90
31799;DHT22;18374;51.136;3.502;2023-05-07T07:32:46;15.90;99.90
31799;DHT22;18374;51.136;3.502;2023-05-07T07:35:15;15.90;99.90
31799;DHT22;18374;51.136;3.502;2023-05-07T07:37:44;15.90;99.90
31799;DHT22;18374;51.136;3.502;2023-05-07T07:40:14;15.90;99.90
31799;DHT22;18374;51.136;3.502;2023-05-07T07:42:42;15.90;99.90
31799;DHT22;18374;51.136;3.502;2023-05-07T07:45:11;16.00;99.90
31799;DHT22;18374;51.136;3.502;2023-05-07T07:47:43;16.00;99.90
31799;DHT22;18374;51.136;3.502;2023-05-07T07:50:11;16.10;99.90
31799;DHT22;18374;51.136;3.502;2023-05-07T07:52:52;16.10;99.90
31799;DHT22;18374;51.136;3.502;2023-05-07T07:55:20;16.20;99.90
31799;DHT22;18374;51.136;3.502;2023-05-07T07:57:52;16.20;99.90
31799;DHT22;18374;51.136;3.502;2023-05-07T08:00:22;16.20;99.90
31799;DHT22;18374;51.136;3.502;2023-05-07T08:02:53;16.20;99.90
31799;DHT22;18374;51.136;3.502;2023-05-07T08:05:26;16.20;99.90
31799;DHT22;18374;51.136;3.502;2023-05-07T08:07:54;16.10;99.90
31799;DHT22;18374;51.136;3.502;2023-05-07T08:10:27;16.10;99.90
31799;DHT22;18374;51.136;3.502;2023-05-07T08:13:01;16.10;99.90
31799;DHT22;18374;51.136;3.502;2023-05-07T08:15:32;16.00;99.90
31799;DHT22;18374;51.136;3.502;2023-05-07T08:18:01;16.00;99.90
31799;DHT22;18374;51.136;3.502;2023-05-07T08:20:30;15.90;99.90
31799;DHT22;18374;51.136;3.502;2023-05-07T08:22:58;15.90;99.90
31799;DHT22;18374;51.136;3.502;2023-05-07T08:25:27;15.90;99.90
31799;DHT22;18374;51.136;3.502;2023-05-07T08:27:55;15.90;99.90
31799;DHT22;18374;51.136;3.502;2023-05-07T08:30:24;15.90;99.90
31799;DHT22;18374;51.136;3.502;2023-05-07T08:32:53;15.90;99.90
31799;DHT22;18374;51.136;3.502;2023-05-07T08:35:21;16.00;99.90
31799;DHT22;18374;51.136;3.502;2023-05-07T08:37:49;16.00;99.90
31799;DHT22;18374;51.136;3.502;2023-05-07T08:40:18;16.00;99.90
31799;DHT22;18374;51.136;3.502;2023-05-07T08:42:49;16.00;99.90
31799;DHT22;18374;51.136;3.502;2023-05-07T08:45:20;16.00;99.90
31799;DHT22;18374;51.136;3.502;2023-05-07T08:47:54;16.00;99.90
31799;DHT22;18374;51.136;3.502;2023-05-07T08:50:31;16.00;99.90
31799;DHT22;18374;51.136;3.502;2023-05-07T08:52:59;16.00;99.90
31799;DHT22;18374;51.136;3.502;2023-05-07T08:55:28;16.00;99.90
31799;DHT22;18374;51.136;3.502;2023-05-07T08:57:57;15.90;99.90
31799;DHT22;18374;51.136;3.502;2023-05-07T09:00:25;15.90;99.90
31799;DHT22;18374;51.136;3.502;2023-05-07T09:02:54;15.90;99.90
31799;DHT22;18374;51.136;3.502;2023-05-07T09:05:23;16.00;99.90
31799;DHT22;18374;51.136;3.502;2023-05-07T09:07:51;15.90;99.90
31799;DHT22;18374;51.136;3.502;2023-05-07T09:10:22;15.90;99.90
31799;DHT22;18374;51.136;3.502;2023-05-07T09:12:50;15.90;99.90
31799;DHT22;18374;51.136;3.502;2023-05-07T09:15:18;15.90;99.90
31799;DHT22;18374;51.136;3.502;2023-05-07T09:17:46;16.00;99.90
31799;DHT22;18374;51.136;3.502;2023-05-07T09:20:14;16.00;99.90
31799;DHT22;18374;51.136;3.502;2023-05-07T09:22:44;16.10;99.90
31799;DHT22;18374;51.136;3.502;2023-05-07T09:25:15;16.10;99.90
31799;DHT22;18374;51.136;3.502;2023-05-07T09:27:55;16.10;99.90
31799;DHT22;18374;51.136;3.502;2023-05-07T09:30:30;16.20;99.90
31799;DHT22;18374;51.136;3.502;2023-05-07T09:33:03;16.20;99.90
31799;DHT22;18374;51.136;3.502;2023-05-07T09:35:33;16.10;99.90
31799;DHT22;18374;51.136;3.502;2023-05-07T09:38:07;16.20;99.90
31799;DHT22;18374;51.136;3.502;2023-05-07T09:40:36;16.20;99.90
31799;DHT22;18374;51.136;3.502;2023-05-07T09:43:10;16.40;99.90
31799;DHT22;18374;51.136;3.502;2023-05-07T09:45:43;16.40;99.90
31799;DHT22;18374;51.136;3.502;2023-05-07T09:48:13;16.40;99.90
31799;DHT22;18374;51.136;3.502;2023-05-07T09:50:49;16.60;99.90
31799;DHT22;18374;51.136;3.502;2023-05-07T09:53:21;16.70;99.90
31799;DHT22;18374;51.136;3.502;2023-05-07T09:55:51;16.80;99.90
31799;DHT22;18374;51.136;3.502;2023-05-07T09:58:21;16.90;99.90
31799;DHT22;18374;51.136;3.502;2023-05-07T10:00:51;16.90;99.90
31799;DHT22;18374;51.136;3.502;2023-05-07T10:03:22;17.00;99.90
31799;DHT22;18374;51.136;3.502;2023-05-07T10:05:59;17.10;99.90
31799;DHT22;18374;51.136;3.502;2023-05-07T10:08:29;17.20;99.90
31799;DHT22;18374;51.136;3.502;2023-05-07T10:11:00;17.40;99.90
31799;DHT22;18374;51.136;3.502;2023-05-07T10:13:29;17.50;99.90
31799;DHT22;18374;51.136;3.502;2023-05-07T10:15:59;17.60;99.90
31799;DHT22;18374;51.136;3.502;2023-05-07T10:18:33;17.70;99.90
31799;DHT22;18374;51.136;3.502;2023-05-07T10:21:18;17.80;99.90
31799;DHT22;18374;51.136;3.502;2023-05-07T10:23:57;17.90;99.90
31799;DHT22;18374;51.136;3.502;2023-05-07T10:26:50;17.90;99.90
31799;DHT22;18374;51.136;3.502;2023-05-07T10:29:32;18.00;99.90
31799;DHT22;18374;51.136;3.502;2023-05-07T10:34:48;17.90;99.90
31799;DHT22;18374;51.136;3.502;2023-05-07T10:37:18;18.10;99.90
31799;DHT22;18374;51.136;3.502;2023-05-07T10:39:46;18.20;99.90
31799;DHT22;18374;51.136;3.502;2023-05-07T10:42:15;18.40;99.90
31799;DHT22;18374;51.136;3.502;2023-05-07T10:44:48;18.40;99.90
31799;DHT22;18374;51.136;3.502;2023-05-07T10:47:23;18.50;99.90
31799;DHT22;18374;51.136;3.502;2023-05-07T10:52:35;18.70;99.90
31799;DHT22;18374;51.136;3.502;2023-05-07T11:04:45;18.40;99.90
31799;DHT22;18374;51.136;3.502;2023-05-07T11:08:24;18.60;99.90
31799;DHT22;18374;51.136;3.502;2023-05-07T11:11:02;18.90;99.90
31799;DHT22;18374;51.136;3.502;2023-05-07T11:13:49;18.80;99.90
31799;DHT22;18374;51.136;3.502;2023-05-07T11:16:37;18.30;99.90
31799;DHT22;18374;51.136;3.502;2023-05-07T11:25:21;18.30;99.90
31799;DHT22;18374;51.136;3.502;2023-05-07T11:28:12;18.30;99.90
31799;DHT22;18374;51.136;3.502;2023-05-07T11:30:50;18.40;99.90
31799;DHT22;18374;51.136;3.502;2023-05-07T11:33:20;18.20;99.90
31799;DHT22;18374;51.136;3.502;2023-05-07T11:35:53;18.30;99.90
31799;DHT22;18374;51.136;3.502;2023-05-07T11:38:25;18.40;99.90
31799;DHT22;18374;51.136;3.502;2023-05-07T11:40:57;18.40;99.90
31799;DHT22;18374;51.136;3.502;2023-05-07T11:43:32;18.40;99.90
31799;DHT22;18374;51.136;3.502;2023-05-07T11:46:10;18.30;99.90
31799;DHT22;18374;51.136;3.502;2023-05-07T11:48:39;18.60;99.90
31799;DHT22;18374;51.136;3.502;2023-05-07T11:51:08;18.90;99.90
31799;DHT22;18374;51.136;3.502;2023-05-07T11:53:42;18.90;99.90
31799;DHT22;18374;51.136;3.502;2023-05-07T11:56:12;18.70;99.90
31799;DHT22;18374;51.136;3.502;2023-05-07T11:58:42;18.80;99.90
31799;DHT22;18374;51.136;3.502;2023-05-07T12:01:12;18.70;99.90
31799;DHT22;18374;51.136;3.502;2023-05-07T12:03:41;18.70;99.90
31799;DHT22;18374;51.136;3.502;2023-05-07T12:06:10;18.80;99.90
31799;DHT22;18374;51.136;3.502;2023-05-07T12:08:41;18.70;99.90
31799;DHT22;18374;51.136;3.502;2023-05-07T12:11:23;18.60;99.90
31799;DHT22;18374;51.136;3.502;2023-05-07T12:13:54;18.60;99.90
31799;DHT22;18374;51.136;3.502;2023-05-07T12:16:27;18.60;99.90
31799;DHT22;18374;51.136;3.502;2023-05-07T12:18:55;18.50;99.90
31799;DHT22;18374;51.136;3.502;2023-05-07T12:21:23;18.30;99.90
31799;DHT22;18374;51.136;3.502;2023-05-07T12:23:52;18.20;99.90
31799;DHT22;18374;51.136;3.502;2023-05-07T12:26:20;18.20;99.90
31799;DHT22;18374;51.136;3.502;2023-05-07T12:28:50;18.30;99.90
31799;DHT22;18374;51.136;3.502;2023-05-07T12:31:18;18.20;99.90
31799;DHT22;18374;51.136;3.502;2023-05-07T12:33:46;18.20;99.90
31799;DHT22;18374;51.136;3.502;2023-05-07T12:36:14;18.20;99.90
31799;DHT22;18374;51.136;3.502;2023-05-07T12:38:42;18.10;99.90
31799;DHT22;18374;51.136;3.502;2023-05-07T12:41:10;18.00;99.90
31799;DHT22;18374;51.136;3.502;2023-05-07T12:43:39;18.00;99.90
31799;DHT22;18374;51.136;3.502;2023-05-07T12:46:11;18.00;99.90
31799;DHT22;18374;51.136;3.502;2023-05-07T12:48:44;18.10;99.90
31799;DHT22;18374;51.136;3.502;2023-05-07T12:51:15;18.20;99.90
31799;DHT22;18374;51.136;3.502;2023-05-07T12:53:43;18.20;99.90
31799;DHT22;18374;51.136;3.502;2023-05-07T12:56:11;18.20;99.90
31799;DHT22;18374;51.136;3.502;2023-05-07T12:58:39;18.20;99.90
31799;DHT22;18374;51.136;3.502;2023-05-07T13:01:08;18.30;99.90
31799;DHT22;18374;51.136;3.502;2023-05-07T13:03:38;18.30;99.90
31799;DHT22;18374;51.136;3.502;2023-05-07T13:06:08;18.20;99.90
31799;DHT22;18374;51.136;3.502;2023-05-07T13:08:39;18.30;99.90
31799;DHT22;18374;51.136;3.502;2023-05-07T13:11:09;18.40;99.90
31799;DHT22;18374;51.136;3.502;2023-05-07T13:13:39;18.60;99.90
31799;DHT22;18374;51.136;3.502;2023-05-07T13:16:09;18.50;99.90
31799;DHT22;18374;51.136;3.502;2023-05-07T13:18:39;18.50;99.90
31799;DHT22;18374;51.136;3.502;2023-05-07T13:21:08;18.80;99.90
31799;DHT22;18374;51.136;3.502;2023-05-07T13:23:36;19.10;99.90
31799;DHT22;18374;51.136;3.502;2023-05-07T13:26:06;19.30;99.90
31799;DHT22;18374;51.136;3.502;2023-05-07T13:28:55;19.40;99.90
31799;DHT22;18374;51.136;3.502;2023-05-07T13:31:23;19.60;99.90
31799;DHT22;18374;51.136;3.502;2023-05-07T13:33:52;19.70;99.90
31799;DHT22;18374;51.136;3.502;2023-05-07T13:36:20;19.80;99.90
31799;DHT22;18374;51.136;3.502;2023-05-07T13:38:47;19.90;99.90
31799;DHT22;18374;51.136;3.502;2023-05-07T13:41:15;19.80;99.90
31799;DHT22;18374;51.136;3.502;2023-05-07T13:43:43;19.80;99.90
31799;DHT22;18374;51.136;3.502;2023-05-07T13:46:11;19.90;99.90
31799;DHT22;18374;51.136;3.502;2023-05-07T13:48:38;19.90;99.90
31799;DHT22;18374;51.136;3.502;2023-05-07T13:51:06;19.70;99.90
31799;DHT22;18374;51.136;3.502;2023-05-07T13:53:34;19.80;99.90
31799;DHT22;18374;51.136;3.502;2023-05-07T13:56:02;19.90;99.90
31799;DHT22;18374;51.136;3.502;2023-05-07T13:58:32;20.00;99.90
31799;DHT22;18374;51.136;3.502;2023-05-07T14:01:00;20.10;99.90
31799;DHT22;18374;51.136;3.502;2023-05-07T14:03:27;20.20;99.90
31799;DHT22;18374;51.136;3.502;2023-05-07T14:05:55;20.60;99.90
31799;DHT22;18374;51.136;3.502;2023-05-07T14:08:25;21.20;99.90
31799;DHT22;18374;51.136;3.502;2023-05-07T14:10:53;21.20;99.90
31799;DHT22;18374;51.136;3.502;2023-05-07T14:13:21;21.60;99.90
31799;DHT22;18374;51.136;3.502;2023-05-07T14:15:49;22.20;99.90
31799;DHT22;18374;51.136;3.502;2023-05-07T14:18:16;22.50;99.90
31799;DHT22;18374;51.136;3.502;2023-05-07T14:20:44;23.00;99.90
31799;DHT22;18374;51.136;3.502;2023-05-07T14:23:14;22.90;99.90
31799;DHT22;18374;51.136;3.502;2023-05-07T14:25:42;22.90;99.90
31799;DHT22;18374;51.136;3.502;2023-05-07T14:28:10;22.70;99.90
31799;DHT22;18374;51.136;3.502;2023-05-07T14:30:38;22.50;99.90
31799;DHT22;18374;51.136;3.502;2023-05-07T14:33:06;22.00;99.90
31799;DHT22;18374;51.136;3.502;2023-05-07T14:35:34;21.40;99.90
31799;DHT22;18374;51.136;3.502;2023-05-07T14:38:02;21.00;99.90
31799;DHT22;18374;51.136;3.502;2023-05-07T14:40:30;20.90;99.90
31799;DHT22;18374;51.136;3.502;2023-05-07T14:42:58;21.40;99.90
31799;DHT22;18374;51.136;3.502;2023-05-07T14:45:25;21.80;99.90
31799;DHT22;18374;51.136;3.502;2023-05-07T14:47:53;22.20;99.90
31799;DHT22;18374;51.136;3.502;2023-05-07T14:50:21;22.40;99.90
31799;DHT22;18374;51.136;3.502;2023-05-07T14:52:49;22.30;99.90
31799;DHT22;18374;51.136;3.502;2023-05-07T14:55:17;21.80;99.90
31799;DHT22;18374;51.136;3.502;2023-05-07T14:57:45;21.40;99.90
31799;DHT22;18374;51.136;3.502;2023-05-07T15:00:13;21.00;99.90
31799;DHT22;18374;51.136;3.502;2023-05-07T15:02:41;20.60;99.90
31799;DHT22;18374;51.136;3.502;2023-05-07T15:05:09;20.20;99.90
31799;DHT22;18374;51.136;3.502;2023-05-07T15:07:36;20.00;99.90
31799;DHT22;18374;51.136;3.502;2023-05-07T15:10:05;20.00;99.90
31799;DHT22;18374;51.136;3.502;2023-05-07T15:12:33;20.00;99.90
31799;DHT22;18374;51.136;3.502;2023-05-07T15:15:00;20.10;99.90
31799;DHT22;18374;51.136;3.502;2023-05-07T15:17:28;20.20;99.90
31799;DHT22;18374;51.136;3.502;2023-05-07T15:19:56;20.20;99.90
31799;DHT22;18374;51.136;3.502;2023-05-07T15:22:24;19.90;99.90
31799;DHT22;18374;51.136;3.502;2023-05-07T15:24:51;19.50;99.90
31799;DHT22;18374;51.136;3.502;2023-05-07T15:27:19;19.30;99.90
31799;DHT22;18374;51.136;3.502;2023-05-07T15:29:47;19.10;99.90
31799;DHT22;18374;51.136;3.502;2023-05-07T15:32:15;18.90;99.90
31799;DHT22;18374;51.136;3.502;2023-05-07T15:34:43;18.80;99.90
31799;DHT22;18374;51.136;3.502;2023-05-07T15:37:11;18.80;99.90
31799;DHT22;18374;51.136;3.502;2023-05-07T15:39:39;18.90;99.90
31799;DHT22;18374;51.136;3.502;2023-05-07T15:42:07;19.00;99.90
31799;DHT22;18374;51.136;3.502;2023-05-07T15:44:34;19.20;99.90
31799;DHT22;18374;51.136;3.502;2023-05-07T15:47:02;19.20;99.90
31799;DHT22;18374;51.136;3.502;2023-05-07T15:49:30;19.40;99.90
31799;DHT22;18374;51.136;3.502;2023-05-07T15:51:58;19.50;99.90
31799;DHT22;18374;51.136;3.502;2023-05-07T15:54:26;19.40;99.90
31799;DHT22;18374;51.136;3.502;2023-05-07T15:56:53;19.40;99.90
31799;DHT22;18374;51.136;3.502;2023-05-07T15:59:21;19.10;99.90
31799;DHT22;18374;51.136;3.502;2023-05-07T16:01:49;19.00;99.90
31799;DHT22;18374;51.136;3.502;2023-05-07T16:04:17;18.80;99.90
31799;DHT22;18374;51.136;3.502;2023-05-07T16:06:45;18.60;99.90
31799;DHT22;18374;51.136;3.502;2023-05-07T16:09:13;18.40;99.90